createdAt,value
2023-04-18T00:01:53.265Z,5.31
2023-04-18T00:04:28.697Z,5.27
2023-04-18T00:07:01.339Z,5.28
2023-04-18T00:09:33.696Z,5.22
2023-04-18T00:12:06.491Z,5.16
2023-04-18T00:14:38.859Z,5.18
2023-04-18T00:17:13.997Z,5.24
2023-04-18T00:19:48.949Z,5.17
2023-04-18T00:22:22.720Z,5.14
2023-04-18T00:24:55.509Z,5.10
2023-04-18T00:27:28.121Z,5.14
2023-04-18T00:30:00.165Z,5.08
2023-04-18T00:32:32.909Z,5.09
2023-04-18T00:35:09.265Z,5.00
2023-04-18T00:37:41.780Z,4.97
2023-04-18T00:40:15.008Z,4.96
2023-04-18T00:42:47.518Z,4.92
2023-04-18T00:45:19.901Z,4.98
2023-04-18T00:47:52.786Z,4.98
2023-04-18T00:50:28.289Z,5.00
2023-04-18T00:53:01.186Z,5.06
2023-04-18T00:55:33.554Z,5.13
2023-04-18T00:58:06.575Z,5.21
2023-04-18T01:00:39.045Z,5.15
2023-04-18T01:03:14.800Z,5.25
2023-04-18T01:05:50.042Z,5.15
2023-04-18T01:08:24.719Z,5.21
2023-04-18T01:10:56.663Z,5.27
2023-04-18T01:13:29.241Z,5.27
2023-04-18T01:16:01.586Z,5.29
2023-04-18T01:18:35.650Z,5.22
2023-04-18T01:21:10.595Z,5.13
2023-04-18T01:23:42.820Z,5.11
2023-04-18T01:26:17.500Z,5.12
2023-04-18T01:28:49.638Z,5.00
2023-04-18T01:31:21.918Z,4.97
2023-04-18T01:33:54.074Z,5.01
2023-04-18T01:36:27.811Z,5.03
2023-04-18T01:38:59.778Z,5.00
2023-04-18T01:41:34.541Z,4.89
2023-04-18T01:44:07.594Z,4.85
2023-04-18T01:46:40.642Z,4.83
2023-04-18T01:49:13.962Z,4.81
2023-04-18T01:51:46.272Z,4.92
2023-04-18T01:54:18.409Z,4.85
2023-04-18T01:56:53.118Z,4.91
2023-04-18T01:59:25.189Z,4.93
2023-04-18T02:01:57.245Z,4.95
2023-04-18T02:04:29.390Z,4.92
2023-04-18T02:07:01.454Z,5.02
2023-04-18T02:09:33.603Z,4.94
2023-04-18T02:12:08.480Z,4.94
2023-04-18T02:14:40.869Z,4.97
2023-04-18T02:20:11.602Z,4.87
2023-04-18T02:22:43.508Z,4.92
2023-04-18T02:25:16.002Z,4.83
2023-04-18T02:27:50.570Z,4.89
2023-04-18T02:30:22.878Z,4.82
2023-04-18T02:32:55.274Z,4.76
2023-04-18T02:35:28.892Z,4.82
2023-04-18T02:38:01.264Z,4.75
2023-04-18T02:40:33.520Z,4.79
2023-04-18T02:43:08.654Z,4.76
2023-04-18T02:45:40.905Z,4.79
2023-04-18T02:48:13.272Z,4.92
2023-04-18T02:50:45.413Z,4.91
2023-04-18T02:53:17.398Z,4.92
2023-04-18T02:55:49.526Z,5.06
2023-04-18T02:58:24.352Z,5.03
2023-04-18T03:00:57.745Z,5.11
2023-04-18T03:03:29.601Z,5.23
2023-04-18T03:06:01.959Z,5.22
2023-04-18T03:08:33.769Z,5.28
2023-04-18T03:11:06.149Z,5.36
2023-04-18T03:13:40.608Z,5.37
2023-04-18T03:16:13.025Z,5.35
2023-04-18T03:18:44.860Z,5.36
2023-04-18T03:21:17.693Z,5.31
2023-04-18T03:23:49.860Z,5.27
2023-04-18T03:26:22.740Z,5.23
2023-04-18T03:28:57.733Z,5.24
2023-04-18T03:31:30.057Z,5.22
2023-04-18T03:34:02.365Z,5.22
2023-04-18T03:36:34.943Z,5.09
2023-04-18T03:39:09.898Z,5.13
2023-04-18T03:41:42.439Z,5.06
2023-04-18T03:44:17.443Z,4.99
2023-04-18T03:46:50.010Z,5.13
2023-04-18T03:49:22.265Z,5.06
2023-04-18T03:51:54.772Z,5.06
2023-04-18T03:54:26.948Z,4.99
2023-04-18T03:56:59.883Z,4.97
2023-04-18T03:59:36.451Z,4.99
2023-04-18T04:02:31.907Z,4.91
2023-04-18T04:05:09.831Z,5.06
2023-04-18T04:07:42.648Z,5.08
2023-04-18T04:10:15.158Z,5.04
2023-04-18T04:12:47.885Z,5.12
2023-04-18T04:15:24.687Z,5.03
2023-04-18T04:17:57.333Z,5.06
2023-04-18T04:20:44.684Z,4.99
2023-04-18T04:23:17.344Z,5.05
2023-04-18T04:25:49.904Z,5.07
2023-04-18T04:28:23.124Z,5.17
2023-04-18T04:30:58.621Z,5.08
2023-04-18T04:33:33.785Z,5.07
2023-04-18T04:36:06.220Z,5.04
2023-04-18T04:38:38.738Z,5.15
2023-04-18T04:41:12.262Z,5.08
2023-04-18T04:43:44.643Z,4.90
2023-04-18T04:46:20.486Z,4.99
2023-04-18T04:48:54.770Z,4.93
2023-04-18T04:51:28.647Z,5.01
2023-04-18T04:54:01.161Z,5.07
2023-04-18T04:56:33.619Z,5.10
2023-04-18T04:59:06.279Z,5.03
2023-04-18T05:01:40.961Z,4.91
2023-04-18T05:04:13.767Z,4.99
2023-04-18T05:06:49.705Z,5.02
2023-04-18T05:09:22.241Z,4.96
2023-04-18T05:11:54.209Z,5.00
2023-04-18T05:14:26.718Z,4.90
2023-04-18T05:17:02.372Z,4.92
2023-04-18T05:19:34.760Z,4.97
2023-04-18T05:22:06.678Z,4.97
2023-04-18T05:24:39.000Z,5.07
2023-04-18T05:27:11.324Z,5.24
2023-04-18T05:29:43.677Z,5.25
2023-04-18T05:32:18.782Z,5.22
2023-04-18T05:34:51.499Z,5.29
2023-04-18T05:37:23.600Z,5.24
2023-04-18T05:39:56.619Z,5.50
2023-04-18T05:42:29.741Z,5.72
2023-04-18T05:45:02.190Z,5.78
2023-04-18T05:47:36.789Z,5.80
2023-04-18T05:50:10.720Z,5.65
2023-04-18T05:52:42.907Z,5.71
2023-04-18T05:55:31.784Z,5.73
2023-04-18T05:58:10.199Z,5.78
2023-04-18T06:00:42.776Z,5.84
2023-04-18T06:03:19.294Z,5.97
2023-04-18T06:05:51.889Z,6.20
2023-04-18T06:08:24.142Z,6.41
2023-04-18T06:10:58.061Z,6.64
2023-04-18T06:13:29.911Z,6.73
2023-04-18T06:16:03.805Z,6.82
2023-04-18T06:18:38.603Z,6.88
2023-04-18T06:21:11.091Z,6.98
2023-04-18T06:23:43.163Z,7.05
2023-04-18T06:26:15.650Z,7.08
2023-04-18T06:28:47.832Z,6.86
2023-04-18T06:31:20.180Z,7.14
2023-04-18T06:33:55.484Z,7.29
2023-04-18T06:36:28.164Z,7.37
2023-04-18T06:39:00.342Z,7.42
2023-04-18T06:41:33.067Z,7.20
2023-04-18T06:44:05.802Z,7.23
2023-04-18T06:46:38.607Z,7.20
2023-04-18T06:49:14.046Z,7.31
2023-04-18T06:51:47.048Z,7.37
2023-04-18T06:54:19.605Z,7.39
2023-04-18T06:56:52.816Z,7.50
2023-04-18T06:59:24.940Z,7.59
2023-04-18T07:01:57.242Z,7.61
2023-04-18T07:04:31.988Z,7.73
2023-04-18T07:07:05.602Z,7.80
2023-04-18T07:09:37.617Z,7.85
2023-04-18T07:12:10.029Z,7.92
2023-04-18T07:14:42.539Z,8.06
2023-04-18T07:17:14.569Z,8.08
2023-04-18T07:19:49.205Z,8.38
2023-04-18T07:22:21.510Z,8.87
2023-04-18T07:24:53.111Z,9.43
2023-04-18T07:27:26.275Z,9.98
2023-04-18T07:29:58.227Z,10.52
2023-04-18T07:32:30.581Z,11.02
2023-04-18T07:35:08.399Z,11.36
2023-04-18T07:37:40.667Z,11.60
2023-04-18T07:40:13.545Z,12.30
2023-04-18T07:42:46.490Z,12.49
2023-04-18T07:45:19.413Z,13.18
2023-04-18T07:47:51.676Z,13.35
2023-04-18T07:50:27.356Z,13.33
2023-04-18T07:52:59.349Z,13.21
2023-04-18T07:55:31.429Z,12.77
2023-04-18T07:58:04.395Z,12.39
2023-04-18T08:00:37.587Z,12.47
2023-04-18T08:03:11.027Z,12.47
2023-04-18T08:05:47.593Z,11.97
2023-04-18T08:08:26.677Z,11.46
2023-04-18T08:10:58.575Z,11.40
2023-04-18T08:13:31.589Z,10.91
2023-04-18T08:16:03.691Z,10.81
2023-04-18T08:18:36.108Z,10.77
2023-04-18T08:21:10.632Z,10.82
2023-04-18T08:23:42.831Z,10.50
2023-04-18T08:26:15.034Z,10.66
2023-04-18T08:28:50.131Z,10.57
2023-04-18T08:31:22.424Z,10.19
2023-04-18T08:33:55.002Z,10.01
2023-04-18T08:36:29.463Z,9.99
2023-04-18T08:39:02.181Z,9.92
2023-04-18T08:41:39.961Z,9.88
2023-04-18T08:44:12.672Z,9.86
2023-04-18T08:46:44.908Z,9.85
2023-04-18T08:49:17.924Z,9.99
2023-04-18T08:51:53.799Z,9.83
2023-04-18T08:54:27.524Z,10.01
2023-04-18T08:57:09.035Z,9.92
2023-04-18T08:59:43.819Z,9.78
2023-04-18T09:02:16.970Z,10.01
2023-04-18T09:04:53.059Z,10.07
2023-04-18T09:07:32.216Z,9.81
2023-04-18T09:10:04.964Z,9.79
2023-04-18T09:12:40.547Z,9.92
2023-04-18T09:15:15.932Z,9.85
2023-04-18T09:17:51.460Z,10.00
2023-04-18T09:20:34.953Z,10.43
2023-04-18T09:23:15.146Z,10.33
2023-04-18T09:25:49.523Z,10.48
2023-04-18T09:28:30.453Z,10.78
2023-04-18T09:31:12.541Z,11.13
2023-04-18T09:33:47.490Z,11.54
2023-04-18T09:36:21.771Z,11.89
2023-04-18T09:38:57.448Z,12.28
2023-04-18T09:41:31.002Z,12.54
2023-04-18T09:44:16.071Z,12.52
2023-04-18T09:46:50.022Z,12.50
2023-04-18T09:49:24.423Z,12.87
2023-04-18T09:51:58.766Z,13.11
2023-04-18T09:54:37.814Z,12.90
2023-04-18T09:57:15.422Z,12.31
2023-04-18T09:59:54.672Z,12.15
2023-04-18T10:02:31.413Z,12.08
2023-04-18T10:05:08.449Z,12.19
2023-04-18T10:07:41.660Z,12.37
2023-04-18T10:10:16.902Z,11.87
2023-04-18T10:12:51.451Z,12.09
2023-04-18T10:15:26.788Z,12.25
2023-04-18T10:18:05.035Z,12.01
2023-04-18T10:20:38.361Z,12.44
2023-04-18T10:23:38.810Z,12.76
2023-04-18T10:26:14.464Z,12.80
2023-04-18T10:28:57.320Z,13.08
2023-04-18T10:31:31.268Z,13.02
2023-04-18T10:34:05.967Z,13.02
2023-04-18T10:36:38.688Z,13.00
2023-04-18T10:39:26.594Z,13.03
2023-04-18T10:42:00.933Z,13.11
2023-04-18T10:44:32.734Z,13.31
2023-04-18T10:47:24.252Z,12.90
2023-04-18T10:50:05.976Z,12.92
2023-04-18T10:52:38.929Z,12.44
2023-04-18T10:55:20.712Z,12.55
2023-04-18T10:57:57.065Z,12.49
2023-04-18T11:00:29.654Z,12.37
2023-04-18T11:03:01.854Z,12.67
2023-04-18T11:05:34.848Z,12.87
2023-04-18T11:08:07.941Z,12.94
2023-04-18T11:10:40.211Z,13.20
2023-04-18T11:13:14.478Z,13.07
2023-04-18T11:15:46.213Z,13.07
2023-04-18T11:18:17.909Z,12.96
2023-04-18T11:20:51.465Z,12.91
2023-04-18T11:23:25.880Z,13.06
2023-04-18T11:25:58.985Z,13.35
2023-04-18T11:28:33.337Z,13.47
2023-04-18T11:31:06.135Z,13.38
2023-04-18T11:33:37.822Z,13.62
2023-04-18T11:36:10.924Z,13.75
2023-04-18T11:38:44.528Z,13.62
2023-04-18T11:41:17.817Z,13.54
2023-04-18T11:43:52.455Z,13.28
2023-04-18T11:46:25.000Z,13.30
2023-04-18T11:48:56.304Z,13.52
2023-04-18T11:51:39.260Z,13.52
2023-04-18T11:54:44.774Z,13.61
2023-04-18T11:57:24.811Z,13.68
2023-04-18T12:00:01.346Z,13.91
2023-04-18T12:02:44.359Z,13.79
2023-04-18T12:05:28.032Z,13.60
2023-04-18T12:08:08.591Z,13.87
2023-04-18T12:10:49.315Z,13.83
2023-04-18T12:13:24.389Z,14.09
2023-04-18T12:16:01.251Z,14.24
2023-04-18T12:18:34.203Z,14.26
2023-04-18T12:21:09.314Z,14.36
2023-04-18T12:23:46.435Z,14.53
2023-04-18T12:26:23.596Z,14.29
2023-04-18T12:28:56.355Z,14.21
2023-04-18T12:31:32.852Z,14.21
2023-04-18T12:34:05.799Z,14.11
2023-04-18T12:36:37.857Z,14.25
2023-04-18T12:39:10.053Z,14.19
2023-04-18T12:41:41.730Z,14.35
2023-04-18T12:44:13.965Z,14.39
2023-04-18T12:46:50.211Z,14.27
2023-04-18T12:49:22.674Z,14.07
2023-04-18T12:51:54.911Z,14.09
2023-04-18T12:54:29.554Z,13.95
2023-04-18T12:57:02.233Z,13.93
2023-04-18T12:59:34.790Z,14.00
2023-04-18T13:02:10.248Z,13.88
2023-04-18T13:04:43.460Z,13.85
2023-04-18T13:07:16.473Z,13.80
2023-04-18T13:09:49.836Z,13.69
2023-04-18T13:12:22.607Z,13.72
2023-04-18T13:14:55.633Z,13.90
2023-04-18T13:17:33.869Z,13.72
2023-04-18T13:20:09.322Z,13.40
2023-04-18T13:22:46.079Z,13.67
2023-04-18T13:25:19.038Z,13.86
2023-04-18T13:27:59.077Z,13.84
2023-04-18T13:30:36.098Z,13.72
2023-04-18T13:33:11.754Z,13.88
2023-04-18T13:35:44.917Z,13.87
2023-04-18T13:38:17.778Z,13.85
2023-04-18T13:40:58.239Z,13.98
2023-04-18T13:43:41.962Z,13.95
2023-04-18T13:46:17.466Z,14.18
2023-04-18T13:48:53.200Z,14.24
2023-04-18T13:51:26.517Z,14.25
2023-04-18T13:54:00.918Z,14.15
2023-04-18T13:56:34.002Z,14.23
2023-04-18T13:59:06.801Z,14.31
2023-04-18T14:01:39.977Z,14.27
2023-04-18T14:04:16.938Z,14.20
2023-04-18T14:06:50.162Z,14.21
2023-04-18T14:09:22.916Z,14.25
2023-04-18T14:11:58.958Z,14.36
2023-04-18T14:14:33.162Z,14.47
2023-04-18T14:17:06.956Z,14.73
2023-04-18T14:19:51.999Z,14.96
2023-04-18T14:22:24.995Z,14.99
2023-04-18T14:24:57.836Z,14.92
2023-04-18T14:27:33.719Z,14.92
2023-04-18T14:30:07.067Z,14.82
2023-04-18T14:32:40.126Z,14.84
2023-04-18T14:35:16.104Z,14.92
2023-04-18T14:37:49.077Z,14.70
2023-04-18T14:40:22.274Z,14.69
2023-04-18T14:42:55.354Z,14.71
2023-04-18T14:45:29.234Z,14.76
2023-04-18T14:48:02.664Z,14.75
2023-04-18T14:50:40.155Z,14.68
2023-04-18T14:53:15.958Z,14.64
2023-04-18T14:55:49.160Z,14.32
2023-04-18T14:58:23.471Z,14.11
2023-04-18T15:00:56.442Z,14.00
2023-04-18T15:03:29.361Z,14.00
2023-04-18T15:06:07.224Z,13.76
2023-04-18T15:08:39.950Z,13.78
2023-04-18T15:11:12.526Z,13.84
2023-04-18T15:13:45.286Z,13.83
2023-04-18T15:16:17.858Z,13.74
2023-04-18T15:19:02.452Z,13.73
2023-04-18T15:21:37.634Z,13.71
2023-04-18T15:24:11.729Z,13.70
2023-04-18T15:26:44.476Z,13.73
2023-04-18T15:29:17.157Z,13.91
2023-04-18T15:31:50.149Z,13.85
2023-04-18T15:34:22.884Z,13.80
2023-04-18T15:36:58.118Z,13.70
2023-04-18T15:39:32.117Z,13.67
2023-04-18T15:42:39.047Z,13.57
2023-04-18T15:45:12.931Z,13.59
2023-04-18T15:47:45.268Z,13.50
2023-04-18T15:50:19.394Z,13.60
2023-04-18T15:52:54.363Z,13.70
2023-04-18T15:55:29.762Z,13.70
2023-04-18T15:58:02.406Z,13.67
2023-04-18T16:00:34.955Z,13.42
2023-04-18T16:03:10.499Z,13.61
2023-04-18T16:05:43.273Z,13.64
2023-04-18T16:08:18.689Z,13.55
2023-04-18T16:10:51.351Z,13.38
2023-04-18T16:13:23.890Z,13.31
2023-04-18T16:15:56.650Z,13.35
2023-04-18T16:18:29.112Z,13.32
2023-04-18T16:21:02.031Z,13.29
2023-04-18T16:23:37.673Z,13.24
2023-04-18T16:26:10.671Z,13.23
2023-04-18T16:28:43.152Z,13.30
2023-04-18T16:31:18.715Z,13.00
2023-04-18T16:33:53.098Z,13.09
2023-04-18T16:36:26.323Z,13.11
2023-04-18T16:39:02.850Z,13.08
2023-04-18T16:41:37.413Z,13.11
2023-04-18T16:44:11.945Z,13.15
2023-04-18T16:46:44.708Z,12.96
2023-04-18T16:49:17.728Z,12.86
2023-04-18T16:51:50.757Z,12.75
2023-04-18T16:54:26.317Z,12.64
2023-04-18T16:56:59.679Z,12.75
2023-04-18T16:59:46.566Z,12.81
2023-04-18T17:02:20.255Z,12.80
2023-04-18T17:04:53.792Z,12.80
2023-04-18T17:07:26.679Z,12.74
2023-04-18T17:10:02.108Z,12.57
2023-04-18T17:12:35.159Z,12.62
2023-04-18T17:15:13.165Z,12.64
2023-04-18T17:17:47.478Z,12.46
2023-04-18T17:20:20.848Z,12.61
2023-04-18T17:23:07.474Z,12.50
2023-04-18T17:25:42.877Z,12.46
2023-04-18T17:28:16.036Z,12.41
2023-04-18T17:30:50.837Z,12.27
2023-04-18T17:33:24.382Z,12.04
2023-04-18T17:35:57.510Z,12.06
2023-04-18T17:38:30.700Z,11.96
2023-04-18T17:41:08.364Z,11.78
2023-04-18T17:43:41.931Z,11.73
2023-04-18T17:46:16.137Z,11.72
2023-04-18T17:48:50.007Z,11.82
2023-04-18T17:51:22.713Z,11.75
2023-04-18T17:53:55.859Z,11.50
2023-04-18T17:56:32.049Z,11.44
2023-04-18T17:59:07.775Z,11.50
2023-04-18T18:01:41.981Z,11.31
2023-04-18T18:04:16.508Z,11.34
2023-04-18T18:06:57.804Z,11.30
2023-04-18T18:09:31.521Z,11.34
2023-04-18T18:12:10.953Z,11.25
2023-04-18T18:14:45.155Z,11.18
2023-04-18T18:17:18.514Z,11.17
2023-04-18T18:19:53.364Z,10.84
2023-04-18T18:22:27.011Z,10.79
2023-04-18T18:25:00.577Z,10.75
2023-04-18T18:27:36.820Z,10.74
2023-04-18T18:30:12.285Z,10.81
2023-04-18T18:32:46.382Z,10.60
2023-04-18T18:35:20.422Z,10.72
2023-04-18T18:37:53.632Z,10.66
2023-04-18T18:40:27.138Z,10.64
2023-04-18T18:43:02.280Z,10.72
2023-04-18T18:45:41.463Z,10.68
2023-04-18T18:48:16.726Z,10.53
2023-04-18T18:50:49.417Z,10.34
2023-04-18T18:53:21.620Z,10.27
2023-04-18T18:55:54.605Z,10.22
2023-04-18T18:58:31.288Z,9.88
2023-04-18T19:01:06.306Z,10.00
2023-04-18T19:03:38.583Z,9.86
2023-04-18T19:06:10.971Z,9.94
2023-04-18T19:08:45.165Z,9.92
2023-04-18T19:11:19.256Z,9.87
2023-04-18T19:13:54.854Z,9.79
2023-04-18T19:16:27.532Z,9.59
2023-04-18T19:18:59.558Z,9.47
2023-04-18T19:21:34.774Z,9.39
2023-04-18T19:24:13.560Z,9.21
2023-04-18T19:26:50.827Z,9.13
2023-04-18T19:29:27.671Z,9.14
2023-04-18T19:32:02.746Z,9.04
2023-04-18T19:34:35.073Z,9.03
2023-04-18T19:37:10.410Z,9.02
2023-04-18T19:39:45.826Z,8.99
2023-04-18T19:42:18.212Z,8.96
2023-04-18T19:44:53.072Z,8.89
2023-04-18T19:47:25.536Z,8.71
2023-04-18T19:49:57.566Z,8.78
2023-04-18T19:52:32.269Z,8.67
2023-04-18T19:55:04.335Z,8.43
2023-04-18T19:57:42.574Z,8.45
2023-04-18T20:00:19.409Z,8.46
2023-04-18T20:02:52.037Z,8.42
2023-04-18T20:05:24.750Z,8.43
2023-04-18T20:07:57.243Z,8.41
2023-04-18T20:10:30.336Z,8.25
2023-04-18T20:13:02.692Z,8.24
2023-04-18T20:15:46.027Z,8.07
2023-04-18T20:18:18.837Z,8.03
2023-04-18T20:20:52.191Z,7.92
2023-04-18T20:23:27.612Z,7.98
2023-04-18T20:26:10.347Z,7.99
2023-04-18T20:28:43.129Z,7.92
2023-04-18T20:31:18.386Z,7.97
2023-04-18T20:33:55.648Z,7.78
2023-04-18T20:36:29.644Z,7.75
2023-04-18T20:39:02.747Z,7.54
2023-04-18T20:41:35.578Z,7.48
2023-04-18T20:44:10.447Z,7.45
2023-04-18T20:46:46.625Z,7.47
2023-04-18T20:49:19.590Z,7.39
2023-04-18T20:51:52.476Z,7.20
2023-04-18T20:54:25.554Z,7.20
2023-04-18T20:56:58.051Z,7.31
2023-04-18T20:59:31.706Z,7.44
2023-04-18T21:02:07.291Z,7.32
2023-04-18T21:04:40.677Z,7.16
2023-04-18T21:07:13.711Z,7.15
2023-04-18T21:09:47.310Z,7.25
2023-04-18T21:12:20.353Z,7.01
2023-04-18T21:14:54.955Z,7.05
2023-04-18T21:17:32.386Z,6.99
2023-04-18T21:20:06.998Z,6.99
2023-04-18T21:23:00.194Z,6.75
2023-04-18T21:25:33.071Z,6.70
2023-04-18T21:28:05.352Z,6.56
2023-04-18T21:30:37.898Z,6.71
2023-04-18T21:33:12.692Z,6.62
2023-04-18T21:35:45.291Z,6.53
2023-04-18T21:38:17.411Z,6.44
2023-04-18T21:40:50.091Z,6.43
2023-04-18T21:43:22.371Z,6.35
2023-04-18T21:45:54.992Z,6.30
2023-04-18T21:48:29.729Z,6.22
2023-04-18T21:51:03.165Z,6.10
2023-04-18T21:53:35.233Z,6.19
2023-04-18T21:56:07.571Z,6.25
2023-04-18T21:58:39.584Z,6.16
2023-04-18T22:01:12.072Z,6.05
2023-04-18T22:03:47.302Z,6.05
2023-04-18T22:06:21.263Z,5.99
2023-04-18T22:08:53.157Z,6.01
2023-04-18T22:11:25.935Z,5.91
2023-04-18T22:13:58.522Z,5.88
2023-04-18T22:16:31.049Z,5.88
2023-04-18T22:19:06.089Z,5.77
2023-04-18T22:21:38.710Z,5.72
2023-04-18T22:24:12.676Z,5.73
2023-04-18T22:26:45.372Z,5.63
2023-04-18T22:29:17.380Z,5.53
2023-04-18T22:31:49.855Z,5.60
2023-04-18T22:34:26.718Z,5.57
2023-04-18T22:36:58.998Z,5.45
2023-04-18T22:39:31.506Z,5.47
2023-04-18T22:42:03.833Z,5.43
2023-04-18T22:44:36.004Z,5.46
2023-04-18T22:47:08.439Z,5.51
2023-04-18T22:49:43.058Z,5.42
2023-04-18T22:52:15.993Z,5.40
2023-04-18T22:54:48.112Z,5.28
2023-04-18T22:57:58.632Z,5.23
2023-04-18T23:00:33.926Z,5.26
2023-04-18T23:03:06.530Z,5.11
2023-04-18T23:05:41.551Z,5.19
2023-04-18T23:08:14.317Z,5.29
2023-04-18T23:10:46.395Z,5.19
2023-04-18T23:13:18.682Z,5.35
2023-04-18T23:15:50.515Z,5.43
2023-04-18T23:18:23.017Z,5.58
2023-04-18T23:20:57.815Z,5.56
2023-04-18T23:23:30.566Z,5.46
2023-04-18T23:26:02.456Z,5.48
2023-04-18T23:28:34.899Z,5.45
2023-04-18T23:31:07.007Z,5.49
2023-04-18T23:33:39.356Z,5.50
2023-04-18T23:36:15.101Z,5.36
2023-04-18T23:38:47.766Z,5.35
2023-04-18T23:41:19.782Z,5.49
2023-04-18T23:43:52.493Z,5.67
2023-04-18T23:46:24.804Z,5.63
2023-04-18T23:48:57.220Z,5.45
2023-04-18T23:51:32.312Z,5.50
2023-04-18T23:54:05.067Z,5.61
2023-04-18T23:56:37.754Z,5.74
2023-04-18T23:59:10.473Z,5.79
